createdAt,value
2018-08-23T00:00:21.103Z,1010.73
2018-08-23T00:01:20.859Z,1010.74
2018-08-23T00:02:20.896Z,1010.72
2018-08-23T00:03:20.868Z,1010.70
2018-08-23T00:04:21.014Z,1010.73
2018-08-23T00:05:20.904Z,1010.71
2018-08-23T00:06:20.901Z,1010.73
2018-08-23T00:07:20.930Z,1010.70
2018-08-23T00:08:20.945Z,1010.70
2018-08-23T00:09:20.993Z,1010.69
2018-08-23T00:10:21.003Z,1010.69
2018-08-23T00:11:20.976Z,1010.68
2018-08-23T00:12:20.979Z,1010.66
2018-08-23T00:13:20.994Z,1010.69
2018-08-23T00:14:21.150Z,1010.64
2018-08-23T00:15:21.066Z,1010.61
2018-08-23T00:16:21.028Z,1010.60
2018-08-23T00:17:21.040Z,1010.60
2018-08-23T00:18:21.074Z,1010.61
2018-08-23T00:19:21.100Z,1010.60
2018-08-23T00:20:21.125Z,1010.59
2018-08-23T00:21:21.099Z,1010.56
2018-08-23T00:22:21.159Z,1010.57
2018-08-23T00:23:21.148Z,1010.58
2018-08-23T00:24:21.100Z,1010.55
2018-08-23T00:25:21.133Z,1010.55
2018-08-23T00:26:21.166Z,1010.58
2018-08-23T00:27:21.206Z,1010.57
2018-08-23T00:28:21.179Z,1010.54
2018-08-23T00:29:21.199Z,1010.55
2018-08-23T00:30:21.206Z,1010.54
2018-08-23T00:31:21.205Z,1010.54
2018-08-23T00:32:21.249Z,1010.55
2018-08-23T00:33:21.261Z,1010.54
2018-08-23T00:34:21.266Z,1010.55
2018-08-23T00:35:21.258Z,1010.54
2018-08-23T00:36:21.272Z,1010.51
2018-08-23T00:37:21.303Z,1010.48
2018-08-23T00:38:21.292Z,1010.46
2018-08-23T00:39:21.322Z,1010.47
2018-08-23T00:40:21.339Z,1010.46
2018-08-23T00:41:21.327Z,1010.49
2018-08-23T00:42:21.376Z,1010.47
2018-08-23T00:43:21.365Z,1010.43
2018-08-23T00:44:21.370Z,1010.44
2018-08-23T00:45:21.412Z,1010.42
2018-08-23T00:46:21.447Z,1010.42
2018-08-23T00:47:21.457Z,1010.38
2018-08-23T00:48:21.414Z,1010.42
2018-08-23T00:49:21.467Z,1010.43
2018-08-23T00:50:21.482Z,1010.38
2018-08-23T00:51:21.455Z,1010.42
2018-08-23T00:52:21.494Z,1010.45
2018-08-23T00:53:21.522Z,1010.47
2018-08-23T00:54:21.530Z,1010.44
2018-08-23T00:55:21.502Z,1010.39
2018-08-23T00:56:21.511Z,1010.42
2018-08-23T00:57:21.542Z,1010.37
2018-08-23T00:58:21.568Z,1010.40
2018-08-23T00:59:21.560Z,1010.44
2018-08-23T01:00:21.601Z,1010.41
2018-08-23T01:01:21.579Z,1010.42
2018-08-23T01:02:21.571Z,1010.38
2018-08-23T01:03:21.624Z,1010.39
2018-08-23T01:04:21.632Z,1010.38
2018-08-23T01:05:21.642Z,1010.40
2018-08-23T01:06:21.633Z,1010.39
2018-08-23T01:07:21.667Z,1010.38
2018-08-23T01:08:21.808Z,1010.37
2018-08-23T01:09:21.690Z,1010.38
2018-08-23T01:10:21.689Z,1010.38
2018-08-23T01:11:21.713Z,1010.35
2018-08-23T01:12:21.944Z,1010.40
2018-08-23T01:13:21.764Z,1010.37
2018-08-23T01:14:21.727Z,1010.36
2018-08-23T01:15:21.826Z,1010.35
2018-08-23T01:16:21.760Z,1010.36
2018-08-23T01:17:21.775Z,1010.36
2018-08-23T01:18:21.910Z,1010.36
2018-08-23T01:19:21.802Z,1010.35
2018-08-23T01:20:21.824Z,1010.36
2018-08-23T01:21:21.827Z,1010.33
2018-08-23T01:22:21.860Z,1010.34
2018-08-23T01:23:21.898Z,1010.31
2018-08-23T01:24:21.905Z,1010.31
2018-08-23T01:25:21.885Z,1010.33
2018-08-23T01:26:21.917Z,1010.30
2018-08-23T01:27:21.890Z,1010.29
2018-08-23T01:28:21.951Z,1010.30
2018-08-23T01:29:21.926Z,1010.30
2018-08-23T01:30:21.944Z,1010.30
2018-08-23T01:31:22.027Z,1010.27
2018-08-23T01:32:21.955Z,1010.29
2018-08-23T01:33:21.991Z,1010.23
2018-08-23T01:34:21.969Z,1010.22
2018-08-23T01:35:22.039Z,1010.22
2018-08-23T01:36:22.011Z,1010.19
2018-08-23T01:37:22.075Z,1010.20
2018-08-23T01:38:22.021Z,1010.17
2018-08-23T01:39:22.198Z,1010.17
2018-08-23T01:40:22.112Z,1010.15
2018-08-23T01:41:22.152Z,1010.14
2018-08-23T01:42:22.140Z,1010.14
2018-08-23T01:43:22.109Z,1010.09
2018-08-23T01:44:22.126Z,1010.15
2018-08-23T01:45:22.375Z,1010.12
2018-08-23T01:46:22.153Z,1010.11
2018-08-23T01:47:22.145Z,1010.11
2018-08-23T01:48:22.380Z,1010.08
2018-08-23T01:49:22.172Z,1010.09
2018-08-23T01:50:22.189Z,1010.06
2018-08-23T01:51:22.230Z,1010.10
2018-08-23T01:52:22.178Z,1010.12
2018-08-23T01:53:22.219Z,1010.13
2018-08-23T01:54:22.213Z,1010.09
2018-08-23T01:55:22.240Z,1010.10
2018-08-23T01:56:22.281Z,1010.09
2018-08-23T01:57:22.299Z,1010.11
2018-08-23T01:58:22.245Z,1010.05
2018-08-23T01:59:22.322Z,1010.07
2018-08-23T02:00:22.282Z,1010.03
2018-08-23T02:01:22.277Z,1010.04
2018-08-23T02:02:22.304Z,1010.04
2018-08-23T02:03:22.300Z,1010.03
2018-08-23T02:04:22.362Z,1010.01
2018-08-23T02:05:22.367Z,1010.00
2018-08-23T02:06:22.375Z,1009.99
2018-08-23T02:07:22.363Z,1010.00
2018-08-23T02:08:22.385Z,1010.01
2018-08-23T02:09:22.401Z,1010.00
2018-08-23T02:10:22.466Z,1009.98
2018-08-23T02:11:22.409Z,1009.97
2018-08-23T02:12:22.466Z,1009.98
2018-08-23T02:13:22.478Z,1009.96
2018-08-23T02:14:22.489Z,1009.99
2018-08-23T02:15:22.483Z,1009.98
2018-08-23T02:16:22.478Z,1009.95
2018-08-23T02:17:22.498Z,1009.95
2018-08-23T02:18:22.564Z,1009.92
2018-08-23T02:19:22.603Z,1009.88
2018-08-23T02:20:22.502Z,1009.88
2018-08-23T02:21:22.564Z,1009.87
2018-08-23T02:22:22.538Z,1009.87
2018-08-23T02:23:22.593Z,1009.84
2018-08-23T02:24:22.582Z,1009.83
2018-08-23T02:25:22.588Z,1009.83
2018-08-23T02:26:22.610Z,1009.81
2018-08-23T02:27:22.603Z,1009.87
2018-08-23T02:28:22.712Z,1009.83
2018-08-23T02:29:22.611Z,1009.89
2018-08-23T02:30:22.623Z,1009.85
2018-08-23T02:31:22.666Z,1009.86
2018-08-23T02:32:22.675Z,1009.85
2018-08-23T02:33:22.716Z,1009.83
2018-08-23T02:34:22.702Z,1009.84
2018-08-23T02:35:22.688Z,1009.78
2018-08-23T02:36:22.751Z,1009.82
2018-08-23T02:37:22.733Z,1009.80
2018-08-23T02:38:22.755Z,1009.77
2018-08-23T02:39:22.758Z,1009.76
2018-08-23T02:40:22.754Z,1009.74
2018-08-23T02:41:22.808Z,1009.77
2018-08-23T02:42:22.785Z,1009.77
2018-08-23T02:43:22.830Z,1009.76
2018-08-23T02:44:22.838Z,1009.76
2018-08-23T02:45:22.818Z,1009.82
2018-08-23T02:46:22.882Z,1009.75
2018-08-23T02:47:22.854Z,1009.76
2018-08-23T02:48:22.857Z,1009.73
2018-08-23T02:49:22.877Z,1009.74
2018-08-23T02:50:22.892Z,1009.73
2018-08-23T02:51:22.926Z,1009.75
2018-08-23T02:52:22.947Z,1009.76
2018-08-23T02:53:22.900Z,1009.72
2018-08-23T02:54:22.935Z,1009.73
2018-08-23T02:55:22.934Z,1009.72
2018-08-23T02:56:22.951Z,1009.72
2018-08-23T02:57:23.001Z,1009.75
2018-08-23T02:58:22.976Z,1009.71
2018-08-23T02:59:23.002Z,1009.72
2018-08-23T03:00:23.091Z,1009.74
2018-08-23T03:01:23.006Z,1009.73
2018-08-23T03:02:23.046Z,1009.73
2018-08-23T03:03:23.070Z,1009.71
2018-08-23T03:04:23.050Z,1009.71
2018-08-23T03:05:23.068Z,1009.67
2018-08-23T03:06:23.074Z,1009.72
2018-08-23T03:07:23.102Z,1009.68
2018-08-23T03:08:23.112Z,1009.69
2018-08-23T03:09:23.137Z,1009.69
2018-08-23T03:10:23.109Z,1009.69
2018-08-23T03:11:23.227Z,1009.70
2018-08-23T03:12:23.146Z,1009.71
2018-08-23T03:13:23.146Z,1009.68
2018-08-23T03:14:23.155Z,1009.72
2018-08-23T03:15:23.255Z,1009.70
2018-08-23T03:16:23.228Z,1009.72
2018-08-23T03:17:23.222Z,1009.69
2018-08-23T03:18:23.314Z,1009.69
2018-08-23T03:19:23.245Z,1009.68
2018-08-23T03:20:23.314Z,1009.71
2018-08-23T03:21:23.261Z,1009.73
2018-08-23T03:22:23.270Z,1009.71
2018-08-23T03:23:23.406Z,1009.68
2018-08-23T03:24:23.270Z,1009.67
2018-08-23T03:25:23.333Z,1009.69
2018-08-23T03:26:23.324Z,1009.65
2018-08-23T03:27:23.392Z,1009.67
2018-08-23T03:28:23.486Z,1009.65
2018-08-23T03:29:23.413Z,1009.64
2018-08-23T03:30:23.368Z,1009.65
2018-08-23T03:31:23.397Z,1009.67
2018-08-23T03:32:23.432Z,1009.64
2018-08-23T03:33:23.400Z,1009.65
2018-08-23T03:34:23.409Z,1009.61
2018-08-23T03:35:23.448Z,1009.63
2018-08-23T03:36:23.413Z,1009.66
2018-08-23T03:37:23.412Z,1009.66
2018-08-23T03:38:23.485Z,1009.66
2018-08-23T03:39:23.486Z,1009.64
2018-08-23T03:40:23.492Z,1009.66
2018-08-23T03:41:23.517Z,1009.66
2018-08-23T03:42:23.485Z,1009.62
2018-08-23T03:43:23.554Z,1009.63
2018-08-23T03:44:23.561Z,1009.59
2018-08-23T03:45:23.525Z,1009.53
2018-08-23T03:46:23.678Z,1009.58
2018-08-23T03:47:23.566Z,1009.58
2018-08-23T03:48:23.651Z,1009.59
2018-08-23T03:49:23.595Z,1009.57
2018-08-23T03:50:23.637Z,1009.57
2018-08-23T03:51:23.624Z,1009.60
2018-08-23T03:52:23.725Z,1009.61
2018-08-23T03:53:23.661Z,1009.62
2018-08-23T03:54:23.936Z,1009.61
2018-08-23T03:55:23.670Z,1009.58
2018-08-23T03:56:23.651Z,1009.61
2018-08-23T03:57:23.688Z,1009.62
2018-08-23T03:58:23.792Z,1009.61
2018-08-23T03:59:23.708Z,1009.63
2018-08-23T04:00:23.715Z,1009.66
2018-08-23T04:01:23.721Z,1009.65
2018-08-23T04:02:23.726Z,1009.64
2018-08-23T04:03:23.819Z,1009.64
2018-08-23T04:04:23.816Z,1009.64
2018-08-23T04:05:23.794Z,1009.66
2018-08-23T04:06:23.762Z,1009.68
2018-08-23T04:07:23.826Z,1009.65
2018-08-23T04:08:23.805Z,1009.61
2018-08-23T04:09:23.796Z,1009.63
2018-08-23T04:10:23.838Z,1009.61
2018-08-23T04:11:23.856Z,1009.61
2018-08-23T04:12:23.876Z,1009.67
2018-08-23T04:13:23.855Z,1009.65
2018-08-23T04:14:23.857Z,1009.66
2018-08-23T04:15:23.967Z,1009.63
2018-08-23T04:16:23.919Z,1009.65
2018-08-23T04:17:23.898Z,1009.64
2018-08-23T04:18:23.903Z,1009.63
2018-08-23T04:19:23.985Z,1009.64
2018-08-23T04:20:24.154Z,1009.61
2018-08-23T04:21:23.971Z,1009.64
2018-08-23T04:22:23.964Z,1009.63
2018-08-23T04:23:24.028Z,1009.66
2018-08-23T04:24:24.044Z,1009.62
2018-08-23T04:25:23.973Z,1009.66
2018-08-23T04:26:24.011Z,1009.63
2018-08-23T04:27:24.046Z,1009.65
2018-08-23T04:28:24.370Z,1009.67
2018-08-23T04:29:24.078Z,1009.64
2018-08-23T04:30:24.108Z,1009.65
2018-08-23T04:31:24.049Z,1009.65
2018-08-23T04:32:24.077Z,1009.65
2018-08-23T04:33:24.111Z,1009.63
2018-08-23T04:34:24.210Z,1009.64
2018-08-23T04:35:24.106Z,1009.65
2018-08-23T04:36:24.159Z,1009.63
2018-08-23T04:37:24.191Z,1009.59
2018-08-23T04:38:24.296Z,1009.61
2018-08-23T04:39:24.229Z,1009.60
2018-08-23T04:40:24.202Z,1009.58
2018-08-23T04:41:24.372Z,1009.61
2018-08-23T04:42:24.191Z,1009.62
2018-08-23T04:43:24.229Z,1009.67
2018-08-23T04:44:24.654Z,1009.63
2018-08-23T04:45:24.231Z,1009.61
2018-08-23T04:46:24.236Z,1009.58
2018-08-23T04:47:24.254Z,1009.55
2018-08-23T04:48:24.304Z,1009.58
2018-08-23T04:49:24.268Z,1009.56
2018-08-23T04:50:25.177Z,1009.59
2018-08-23T04:51:24.305Z,1009.56
2018-08-23T04:52:24.644Z,1009.58
2018-08-23T04:53:24.303Z,1009.60
2018-08-23T04:54:24.787Z,1009.58
2018-08-23T04:55:24.449Z,1009.60
2018-08-23T04:56:24.383Z,1009.58
2018-08-23T04:57:24.388Z,1009.54
2018-08-23T04:58:24.765Z,1009.55
2018-08-23T04:59:24.809Z,1009.59
2018-08-23T05:00:24.403Z,1009.53
2018-08-23T05:01:24.782Z,1009.52
2018-08-23T05:02:24.615Z,1009.50
2018-08-23T05:03:24.766Z,1009.51
2018-08-23T05:04:24.737Z,1009.50
2018-08-23T05:05:24.821Z,1009.47
2018-08-23T05:06:24.493Z,1009.49
2018-08-23T05:07:25.044Z,1009.49
2018-08-23T05:08:25.294Z,1009.48
2018-08-23T05:09:24.623Z,1009.48
2018-08-23T05:10:24.729Z,1009.49
2018-08-23T05:11:24.818Z,1009.49
2018-08-23T05:12:24.778Z,1009.45
2018-08-23T05:13:24.745Z,1009.44
2018-08-23T05:14:24.741Z,1009.46
2018-08-23T05:15:24.635Z,1009.43
2018-08-23T05:16:24.633Z,1009.47
2018-08-23T05:17:24.728Z,1009.44
2018-08-23T05:18:24.701Z,1009.43
2018-08-23T05:19:24.831Z,1009.42
2018-08-23T05:20:24.721Z,1009.41
2018-08-23T05:21:24.687Z,1009.41
2018-08-23T05:22:24.753Z,1009.44
2018-08-23T05:23:24.943Z,1009.39
2018-08-23T05:24:25.835Z,1009.44
2018-08-23T05:25:25.248Z,1009.46
2018-08-23T05:26:24.797Z,1009.44
2018-08-23T05:27:25.032Z,1009.43
2018-08-23T05:28:25.207Z,1009.44
2018-08-23T05:29:25.072Z,1009.41
2018-08-23T05:30:25.688Z,1009.41
2018-08-23T05:31:24.937Z,1009.39
2018-08-23T05:32:25.014Z,1009.37
2018-08-23T05:33:24.912Z,1009.38
2018-08-23T05:34:24.953Z,1009.36
2018-08-23T05:35:25.149Z,1009.38
2018-08-23T05:36:25.395Z,1009.39
2018-08-23T05:37:24.995Z,1009.37
2018-08-23T05:38:25.009Z,1009.37
2018-08-23T05:39:25.231Z,1009.41
2018-08-23T05:40:25.217Z,1009.37
2018-08-23T05:41:25.210Z,1009.39
2018-08-23T05:42:25.216Z,1009.36
2018-08-23T05:43:25.119Z,1009.34
2018-08-23T05:44:25.146Z,1009.31
2018-08-23T05:45:25.087Z,1009.35
2018-08-23T05:46:25.468Z,1009.31
2018-08-23T05:47:25.288Z,1009.28
2018-08-23T05:48:25.220Z,1009.27
2018-08-23T05:49:25.240Z,1009.26
2018-08-23T05:50:25.150Z,1009.25
2018-08-23T05:51:25.109Z,1009.28
2018-08-23T05:52:25.279Z,1009.29
2018-08-23T05:53:25.367Z,1009.28
2018-08-23T05:54:25.273Z,1009.26
2018-08-23T05:55:25.341Z,1009.26
2018-08-23T05:56:25.191Z,1009.28
2018-08-23T05:57:25.234Z,1009.28
2018-08-23T05:58:25.254Z,1009.24
2018-08-23T05:59:25.202Z,1009.25
2018-08-23T06:00:25.221Z,1009.26
2018-08-23T06:01:25.222Z,1009.28
2018-08-23T06:02:25.321Z,1009.27
2018-08-23T06:03:25.219Z,1009.29
2018-08-23T06:04:25.308Z,1009.23
2018-08-23T06:05:25.329Z,1009.26
2018-08-23T06:06:25.340Z,1009.24
2018-08-23T06:07:25.284Z,1009.23
2018-08-23T06:08:25.286Z,1009.21
2018-08-23T06:09:25.370Z,1009.19
2018-08-23T06:10:25.345Z,1009.22
2018-08-23T06:11:25.304Z,1009.21
2018-08-23T06:12:25.420Z,1009.18
2018-08-23T06:13:25.322Z,1009.12
2018-08-23T06:14:25.439Z,1009.16
2018-08-23T06:15:25.487Z,1009.13
2018-08-23T06:16:25.469Z,1009.14
2018-08-23T06:17:25.424Z,1009.12
2018-08-23T06:18:25.382Z,1009.12
2018-08-23T06:19:25.441Z,1009.10
2018-08-23T06:20:25.555Z,1009.12
2018-08-23T06:21:25.568Z,1009.10
2018-08-23T06:22:25.464Z,1009.11
2018-08-23T06:23:25.560Z,1009.12
2018-08-23T06:24:25.589Z,1009.09
2018-08-23T06:25:25.733Z,1009.10
2018-08-23T06:26:25.633Z,1009.09
2018-08-23T06:27:25.519Z,1009.07
2018-08-23T06:28:25.538Z,1009.07
2018-08-23T06:29:25.616Z,1009.04
2018-08-23T06:30:25.588Z,1009.04
2018-08-23T06:31:25.586Z,1009.04
2018-08-23T06:32:25.598Z,1009.00
2018-08-23T06:33:25.852Z,1008.98
2018-08-23T06:34:25.613Z,1008.99
2018-08-23T06:35:25.634Z,1009.03
2018-08-23T06:36:25.640Z,1009.01
2018-08-23T06:37:25.657Z,1009.03
2018-08-23T06:38:25.670Z,1009.07
2018-08-23T06:39:25.674Z,1009.03
2018-08-23T06:40:25.693Z,1009.01
2018-08-23T06:41:25.696Z,1009.05
2018-08-23T06:42:25.793Z,1009.06
2018-08-23T06:43:25.743Z,1009.05
2018-08-23T06:44:25.751Z,1009.03
2018-08-23T06:45:25.751Z,1009.04
2018-08-23T06:46:25.823Z,1009.05
2018-08-23T06:47:25.827Z,1009.06
2018-08-23T06:48:25.820Z,1009.05
2018-08-23T06:49:25.831Z,1009.02
2018-08-23T06:50:25.852Z,1009.03
2018-08-23T06:51:25.859Z,1009.06
2018-08-23T06:52:25.851Z,1009.05
2018-08-23T06:53:25.965Z,1009.04
2018-08-23T06:54:25.887Z,1009.04
2018-08-23T06:55:25.891Z,1009.03
2018-08-23T06:56:25.966Z,1009.00
2018-08-23T06:57:26.010Z,1009.03
2018-08-23T06:58:25.958Z,1009.01
2018-08-23T06:59:26.128Z,1008.99
2018-08-23T07:00:25.982Z,1009.00
2018-08-23T07:01:26.561Z,1009.00
2018-08-23T07:02:26.037Z,1008.95
2018-08-23T07:03:26.056Z,1008.95
2018-08-23T07:04:26.062Z,1008.98
2018-08-23T07:05:26.161Z,1008.97
2018-08-23T07:06:26.068Z,1008.97
2018-08-23T07:07:26.071Z,1008.94
2018-08-23T07:08:26.098Z,1008.96
2018-08-23T07:09:26.206Z,1008.91
2018-08-23T07:10:26.185Z,1008.89
2018-08-23T07:11:26.185Z,1008.92
2018-08-23T07:12:26.165Z,1008.91
2018-08-23T07:13:26.226Z,1008.92
2018-08-23T07:14:26.197Z,1008.94
2018-08-23T07:15:26.191Z,1008.89
2018-08-23T07:16:26.259Z,1008.90
2018-08-23T07:17:26.236Z,1008.90
2018-08-23T07:18:26.238Z,1008.95
2018-08-23T07:19:26.300Z,1008.93
2018-08-23T07:20:26.284Z,1008.90
2018-08-23T07:21:26.291Z,1008.92
2018-08-23T07:22:26.369Z,1008.95
2018-08-23T07:23:26.284Z,1008.90
2018-08-23T07:24:26.395Z,1008.87
2018-08-23T07:25:26.337Z,1008.91
2018-08-23T07:26:26.389Z,1008.88
2018-08-23T07:27:26.361Z,1008.88
2018-08-23T07:28:26.352Z,1008.88
2018-08-23T07:29:26.407Z,1008.89
2018-08-23T07:30:26.462Z,1008.92
2018-08-23T07:31:26.409Z,1008.89
2018-08-23T07:32:26.429Z,1008.89
2018-08-23T07:33:26.458Z,1008.91
2018-08-23T07:34:26.501Z,1008.94
2018-08-23T07:35:26.471Z,1008.93
2018-08-23T07:36:26.480Z,1008.93
2018-08-23T07:37:26.488Z,1008.91
2018-08-23T07:38:26.492Z,1008.93
2018-08-23T07:39:26.546Z,1008.91
2018-08-23T07:40:26.550Z,1008.94
2018-08-23T07:41:26.564Z,1008.92
2018-08-23T07:42:26.568Z,1008.94
2018-08-23T07:43:26.560Z,1008.96
2018-08-23T07:44:26.631Z,1008.95
2018-08-23T07:45:26.611Z,1008.97
2018-08-23T07:46:26.681Z,1008.99
2018-08-23T07:47:26.654Z,1008.97
2018-08-23T07:48:26.768Z,1009.01
2018-08-23T07:49:26.663Z,1009.00
2018-08-23T07:50:26.730Z,1008.99
2018-08-23T07:51:26.808Z,1009.02
2018-08-23T07:52:26.864Z,1009.00
2018-08-23T07:53:26.840Z,1008.99
2018-08-23T07:54:26.771Z,1009.01
2018-08-23T07:55:26.749Z,1009.00
2018-08-23T07:56:26.760Z,1009.01
2018-08-23T07:57:26.777Z,1008.97
2018-08-23T07:58:26.828Z,1008.98
2018-08-23T07:59:26.804Z,1008.97
2018-08-23T08:00:26.824Z,1008.92
2018-08-23T08:01:26.835Z,1008.95
2018-08-23T08:02:26.844Z,1008.95
2018-08-23T08:03:27.119Z,1008.93
2018-08-23T08:04:27.020Z,1008.93
2018-08-23T08:05:26.899Z,1008.95
2018-08-23T08:06:26.898Z,1008.92
2018-08-23T08:07:26.905Z,1008.93
2018-08-23T08:08:26.927Z,1008.92
2018-08-23T08:09:26.955Z,1008.93
2018-08-23T08:10:26.950Z,1008.92
2018-08-23T08:11:26.981Z,1008.92
2018-08-23T08:12:26.979Z,1008.97
2018-08-23T08:13:27.013Z,1008.94
2018-08-23T08:14:27.013Z,1008.96
2018-08-23T08:15:27.018Z,1008.91
2018-08-23T08:16:27.043Z,1008.94
2018-08-23T08:17:27.092Z,1008.94
2018-08-23T08:18:27.105Z,1008.96
2018-08-23T08:19:27.073Z,1008.96
2018-08-23T08:20:27.270Z,1008.94
2018-08-23T08:21:27.111Z,1008.92
2018-08-23T08:22:27.131Z,1008.91
2018-08-23T08:23:27.166Z,1008.91
2018-08-23T08:24:27.199Z,1008.90
2018-08-23T08:25:27.168Z,1008.89
2018-08-23T08:26:27.198Z,1008.85
2018-08-23T08:27:27.183Z,1008.91
2018-08-23T08:28:27.255Z,1008.93
2018-08-23T08:29:27.258Z,1008.89
2018-08-23T08:30:27.243Z,1008.89
2018-08-23T08:31:27.251Z,1008.91
2018-08-23T08:32:27.247Z,1008.90
2018-08-23T08:33:27.252Z,1008.87
2018-08-23T08:34:27.327Z,1008.89
2018-08-23T08:35:27.338Z,1008.83
2018-08-23T08:36:27.360Z,1008.84
2018-08-23T08:37:27.353Z,1008.84
2018-08-23T08:38:27.322Z,1008.86
2018-08-23T08:39:27.388Z,1008.86
2018-08-23T08:40:27.375Z,1008.85
2018-08-23T08:41:27.424Z,1008.81
2018-08-23T08:42:27.388Z,1008.80
2018-08-23T08:43:27.418Z,1008.78
2018-08-23T08:44:27.448Z,1008.77
2018-08-23T08:45:27.588Z,1008.73
2018-08-23T08:46:27.513Z,1008.72
2018-08-23T08:47:27.481Z,1008.72
2018-08-23T08:48:27.635Z,1008.69
2018-08-23T08:49:27.479Z,1008.71
2018-08-23T08:50:27.608Z,1008.69
2018-08-23T08:51:27.523Z,1008.67
2018-08-23T08:52:27.551Z,1008.62
2018-08-23T08:53:27.574Z,1008.66
2018-08-23T08:54:27.659Z,1008.65
2018-08-23T08:55:27.577Z,1008.61
2018-08-23T08:56:27.581Z,1008.63
2018-08-23T08:57:27.628Z,1008.63
2018-08-23T08:58:28.096Z,1008.61
2018-08-23T08:59:27.653Z,1008.58
2018-08-23T09:00:27.658Z,1008.58
2018-08-23T09:01:27.655Z,1008.55
2018-08-23T09:02:27.659Z,1008.54
2018-08-23T09:03:27.721Z,1008.49
2018-08-23T09:04:27.747Z,1008.49
2018-08-23T09:05:27.724Z,1008.48
2018-08-23T09:06:27.739Z,1008.45
2018-08-23T09:07:27.754Z,1008.50
2018-08-23T09:08:27.810Z,1008.48
2018-08-23T09:09:27.824Z,1008.48
2018-08-23T09:10:27.775Z,1008.46
2018-08-23T09:11:27.830Z,1008.43
2018-08-23T09:12:27.846Z,1008.41
2018-08-23T09:13:27.834Z,1008.44
2018-08-23T09:14:27.886Z,1008.42
2018-08-23T09:15:27.847Z,1008.41
2018-08-23T09:16:27.928Z,1008.38
2018-08-23T09:17:27.873Z,1008.37
2018-08-23T09:18:27.934Z,1008.38
2018-08-23T09:19:27.898Z,1008.41
2018-08-23T09:20:27.958Z,1008.36
2018-08-23T09:21:28.048Z,1008.35
2018-08-23T09:22:27.970Z,1008.35
2018-08-23T09:23:28.031Z,1008.36
2018-08-23T09:24:27.998Z,1008.30
2018-08-23T09:25:28.028Z,1008.30
2018-08-23T09:26:28.089Z,1008.27
2018-08-23T09:27:28.084Z,1008.26
2018-08-23T09:28:28.054Z,1008.25
2018-08-23T09:29:28.040Z,1008.21
2018-08-23T09:30:28.068Z,1008.23
2018-08-23T09:31:28.134Z,1008.22
2018-08-23T09:32:28.159Z,1008.19
2018-08-23T09:33:28.163Z,1008.14
2018-08-23T09:34:28.148Z,1008.14
2018-08-23T09:35:28.149Z,1008.14
2018-08-23T09:36:28.160Z,1008.16
2018-08-23T09:37:28.175Z,1008.13
2018-08-23T09:38:28.266Z,1008.12
2018-08-23T09:39:28.238Z,1008.14
2018-08-23T09:40:28.239Z,1008.07
2018-08-23T09:41:28.224Z,1008.08
2018-08-23T09:42:28.258Z,1008.04
2018-08-23T09:43:28.261Z,1008.02
2018-08-23T09:44:28.519Z,1008.02
2018-08-23T09:45:28.313Z,1007.99
2018-08-23T09:46:28.343Z,1008.01
2018-08-23T09:47:28.306Z,1008.00
2018-08-23T09:48:28.325Z,1007.95
2018-08-23T09:49:28.346Z,1007.98
2018-08-23T09:50:28.391Z,1007.95
2018-08-23T09:51:28.357Z,1007.91
2018-08-23T09:52:28.379Z,1007.88
2018-08-23T09:53:28.423Z,1007.88
2018-08-23T09:54:28.426Z,1007.88
2018-08-23T09:55:28.461Z,1007.87
2018-08-23T09:56:28.524Z,1007.82
2018-08-23T09:57:28.451Z,1007.82
2018-08-23T09:58:28.472Z,1007.80
2018-08-23T09:59:28.484Z,1007.72
2018-08-23T10:00:28.506Z,1007.77
2018-08-23T10:01:28.535Z,1007.76
2018-08-23T10:02:28.535Z,1007.73
2018-08-23T10:03:28.571Z,1007.73
2018-08-23T10:04:28.663Z,1007.68
2018-08-23T10:05:28.563Z,1007.69
2018-08-23T10:06:28.589Z,1007.69
2018-08-23T10:07:28.613Z,1007.71
2018-08-23T10:08:28.674Z,1007.68
2018-08-23T10:09:28.644Z,1007.65
2018-08-23T10:10:28.661Z,1007.63
2018-08-23T10:11:28.750Z,1007.66
2018-08-23T10:12:28.679Z,1007.63
2018-08-23T10:13:28.713Z,1007.64
2018-08-23T10:14:28.715Z,1007.61
2018-08-23T10:15:28.749Z,1007.60
2018-08-23T10:16:28.890Z,1007.58
2018-08-23T10:17:28.753Z,1007.56
2018-08-23T10:18:28.756Z,1007.55
2018-08-23T10:19:28.804Z,1007.54
2018-08-23T10:20:28.808Z,1007.51
2018-08-23T10:21:28.821Z,1007.51
2018-08-23T10:22:28.835Z,1007.54
2018-08-23T10:23:28.838Z,1007.50
2018-08-23T10:24:28.854Z,1007.50
2018-08-23T10:25:28.922Z,1007.49
2018-08-23T10:26:28.892Z,1007.46
2018-08-23T10:27:29.124Z,1007.50
2018-08-23T10:28:28.932Z,1007.42
2018-08-23T10:29:28.933Z,1007.44
2018-08-23T10:30:29.015Z,1007.40
2018-08-23T10:31:28.943Z,1007.36
2018-08-23T10:32:29.470Z,1007.35
2018-08-23T10:33:28.974Z,1007.36
2018-08-23T10:34:29.008Z,1007.35
2018-08-23T10:35:29.254Z,1007.35
2018-08-23T10:36:29.027Z,1007.31
2018-08-23T10:37:29.057Z,1007.39
2018-08-23T10:38:29.151Z,1007.34
2018-08-23T10:39:29.092Z,1007.30
2018-08-23T10:40:29.244Z,1007.31
2018-08-23T10:41:29.363Z,1007.33
2018-08-23T10:42:29.259Z,1007.26
2018-08-23T10:43:29.132Z,1007.23
2018-08-23T10:44:29.221Z,1007.20
2018-08-23T10:45:29.158Z,1007.22
2018-08-23T10:46:29.208Z,1007.18
2018-08-23T10:47:29.197Z,1007.17
2018-08-23T10:48:29.417Z,1007.15
2018-08-23T10:49:29.217Z,1007.16
2018-08-23T10:50:29.237Z,1007.18
2018-08-23T10:51:29.279Z,1007.16
2018-08-23T10:52:29.272Z,1007.15
2018-08-23T10:53:29.342Z,1007.14
2018-08-23T10:54:29.319Z,1007.10
2018-08-23T10:55:29.364Z,1007.10
2018-08-23T10:56:29.316Z,1007.07
2018-08-23T10:57:29.400Z,1007.02
2018-08-23T10:58:29.500Z,1007.08
2018-08-23T10:59:29.438Z,1007.03
2018-08-23T11:00:29.601Z,1007.03
2018-08-23T11:01:29.393Z,1007.03
2018-08-23T11:02:29.460Z,1007.02
2018-08-23T11:03:29.458Z,1007.05
2018-08-23T11:04:29.482Z,1007.05
2018-08-23T11:05:29.482Z,1006.99
2018-08-23T11:06:29.497Z,1007.00
2018-08-23T11:07:29.545Z,1006.96
2018-08-23T11:08:29.552Z,1006.97
2018-08-23T11:09:29.522Z,1006.96
2018-08-23T11:10:29.558Z,1006.90
2018-08-23T11:11:29.605Z,1006.89
2018-08-23T11:12:29.617Z,1006.92
2018-08-23T11:13:29.630Z,1006.92
2018-08-23T11:14:29.613Z,1006.92
2018-08-23T11:15:29.633Z,1006.91
2018-08-23T11:16:29.649Z,1006.89
2018-08-23T11:17:29.706Z,1006.85
2018-08-23T11:18:29.694Z,1006.88
2018-08-23T11:19:29.695Z,1006.86
2018-08-23T11:28:59.901Z,1006.78
2018-08-23T11:29:59.889Z,1006.73
2018-08-23T11:35:21.749Z,1006.65
2018-08-23T11:36:20.791Z,1006.64
2018-08-23T11:37:20.798Z,1006.61
2018-08-23T11:38:20.809Z,1006.56
2018-08-23T11:39:20.815Z,1006.55
2018-08-23T11:40:20.898Z,1006.48
2018-08-23T11:41:20.884Z,1006.51
2018-08-23T11:42:20.865Z,1006.50
2018-08-23T11:43:20.900Z,1006.56
2018-08-23T11:44:20.905Z,1006.51
2018-08-23T11:45:20.924Z,1006.45
2018-08-23T11:46:20.952Z,1006.49
2018-08-23T11:47:20.965Z,1006.45
2018-08-23T11:48:20.981Z,1006.46
2018-08-23T11:49:20.972Z,1006.46
2018-08-23T11:50:20.997Z,1006.45
2018-08-23T11:51:21.068Z,1006.42
2018-08-23T11:52:21.037Z,1006.38
2018-08-23T11:53:21.137Z,1006.39
2018-08-23T11:54:21.112Z,1006.39
2018-08-23T11:55:21.074Z,1006.35
2018-08-23T11:56:21.066Z,1006.36
2018-08-23T11:57:21.102Z,1006.35
2018-08-23T11:58:21.180Z,1006.38
2018-08-23T11:59:21.148Z,1006.32
2018-08-23T12:00:21.171Z,1006.32
2018-08-23T12:01:21.243Z,1006.29
2018-08-23T12:02:21.322Z,1006.28
2018-08-23T12:37:02.460Z,1005.75
2018-08-23T12:38:02.492Z,1005.70
2018-08-23T12:39:02.466Z,1005.75
2018-08-23T12:40:02.466Z,1005.76
2018-08-23T12:41:02.520Z,1005.75
2018-08-23T12:42:02.557Z,1005.75
2018-08-23T12:43:02.549Z,1005.73
2018-08-23T12:44:02.541Z,1005.75
2018-08-23T12:45:02.614Z,1005.73
2018-08-23T12:46:02.581Z,1005.73
2018-08-23T12:47:02.660Z,1005.69
2018-08-23T12:48:02.605Z,1005.70
2018-08-23T12:49:02.618Z,1005.68
2018-08-23T12:50:02.627Z,1005.68
2018-08-23T12:51:02.649Z,1005.61
2018-08-23T12:52:02.719Z,1005.63